createdAt,value
2023-01-13T00:00:04.221Z,99770.88
2023-01-13T00:02:30.690Z,99773.63
2023-01-13T00:04:57.193Z,99778.03
2023-01-13T00:07:23.666Z,99772.00
2023-01-13T00:09:50.109Z,99774.69
2023-01-13T00:12:16.578Z,99769.50
2023-01-13T00:14:43.027Z,99778.22
2023-01-13T00:17:09.422Z,99765.28
2023-01-13T00:19:35.839Z,99762.69
2023-01-13T00:22:02.275Z,99751.31
2023-01-13T00:24:28.679Z,99757.16
2023-01-13T00:26:55.183Z,99750.94
2023-01-13T00:29:21.681Z,99744.09
2023-01-13T00:31:49.187Z,99741.66
2023-01-13T00:34:15.599Z,99732.03
2023-01-13T00:36:42.089Z,99733.03
2023-01-13T00:39:08.743Z,99728.69
2023-01-13T00:41:55.102Z,99737.47
2023-01-13T00:44:21.583Z,99757.28
2023-01-13T00:46:48.102Z,99752.09
2023-01-13T00:49:14.557Z,99745.16
2023-01-13T00:51:40.968Z,99742.03
2023-01-13T00:54:07.806Z,99741.16
2023-01-13T00:56:40.107Z,99741.84
2023-01-13T00:59:11.022Z,99740.97
2023-01-13T01:01:37.645Z,99722.84
2023-01-13T01:04:04.434Z,99731.53
2023-01-13T01:06:31.023Z,99755.94
2023-01-13T01:08:57.690Z,99763.78
2023-01-13T01:11:29.979Z,99758.50
2023-01-13T01:13:58.412Z,99737.75
2023-01-13T01:16:30.447Z,99741.34
2023-01-13T01:18:57.881Z,99725.75
2023-01-13T01:21:26.034Z,99729.34
2023-01-13T01:23:53.239Z,99741.47
2023-01-13T01:26:22.198Z,99741.34
2023-01-13T01:28:48.800Z,99769.06
2023-01-13T01:31:23.017Z,99781.34
2023-01-13T01:33:50.206Z,99769.31
2023-01-13T01:36:19.055Z,99766.13
2023-01-13T01:38:46.132Z,99764.31
2023-01-13T01:41:20.346Z,99762.66
2023-01-13T01:44:05.930Z,99742.66
2023-01-13T01:46:44.420Z,99714.97
2023-01-13T01:49:20.510Z,99733.41
2023-01-13T01:51:52.331Z,99757.06
2023-01-13T01:54:35.445Z,99766.72
2023-01-13T01:57:02.187Z,99776.97
2023-01-13T01:59:32.009Z,99780.31
2023-01-13T02:01:58.773Z,99761.34
2023-01-13T02:04:32.104Z,99769.53
2023-01-13T02:06:58.789Z,99760.78
2023-01-13T02:09:26.060Z,99757.25
2023-01-13T02:12:11.143Z,99751.34
2023-01-13T02:14:38.924Z,99756.72
2023-01-13T02:17:17.352Z,99757.81
2023-01-13T02:20:09.437Z,99757.13
2023-01-13T02:22:54.203Z,99767.53
2023-01-13T02:25:38.845Z,99765.06
2023-01-13T02:28:34.897Z,99767.91
2023-01-13T02:31:27.751Z,99774.78
2023-01-13T02:34:09.247Z,99769.81
2023-01-13T02:37:07.951Z,99776.91
2023-01-13T02:40:09.699Z,99770.09
2023-01-13T02:43:06.319Z,99779.94
2023-01-13T02:45:39.825Z,99777.47
2023-01-13T02:48:08.916Z,99779.34
2023-01-13T02:50:50.831Z,99774.09
2023-01-13T02:53:28.231Z,99774.38
2023-01-13T02:55:57.473Z,99767.69
2023-01-13T02:58:27.305Z,99767.94
2023-01-13T03:00:53.957Z,99762.72
2023-01-13T03:03:20.841Z,99763.59
2023-01-13T03:05:49.651Z,99762.66
2023-01-13T03:08:34.804Z,99767.03
2023-01-13T03:11:10.089Z,99767.16
2023-01-13T03:13:47.638Z,99762.94
2023-01-13T03:16:26.147Z,99749.91
2023-01-13T03:19:05.243Z,99752.66
2023-01-13T03:22:05.178Z,99751.13
2023-01-13T03:24:39.313Z,99746.13
2023-01-13T03:27:18.942Z,99747.19
2023-01-13T03:30:03.593Z,99748.91
2023-01-13T03:32:37.884Z,99760.25
2023-01-13T03:35:25.870Z,99760.28
2023-01-13T03:37:59.630Z,99775.09
2023-01-13T03:40:33.326Z,99762.00
2023-01-13T03:43:29.173Z,99756.03
2023-01-13T03:45:59.816Z,99765.59
2023-01-13T03:48:29.696Z,99759.53
2023-01-13T03:51:03.778Z,99755.34
2023-01-13T03:53:36.240Z,99764.09
2023-01-13T03:56:09.885Z,99764.16
2023-01-13T03:58:42.403Z,99766.75
2023-01-13T04:01:39.129Z,99769.44
2023-01-13T04:04:09.278Z,99760.81
2023-01-13T04:07:18.370Z,99758.31
2023-01-13T04:09:50.927Z,99765.28
2023-01-13T04:12:25.231Z,99764.53
2023-01-13T04:14:54.281Z,99769.81
2023-01-13T04:17:21.382Z,99766.31
2023-01-13T04:19:47.821Z,99769.75
2023-01-13T04:22:14.243Z,99761.13
2023-01-13T04:24:40.681Z,99775.94
2023-01-13T04:27:07.255Z,99773.34
2023-01-13T04:29:33.678Z,99766.31
2023-01-13T04:32:00.099Z,99770.59
2023-01-13T04:34:28.388Z,99765.41
2023-01-13T04:36:55.288Z,99762.72
2023-01-13T04:39:21.764Z,99761.00
2023-01-13T04:42:01.305Z,99764.53
2023-01-13T04:44:28.517Z,99758.47
2023-01-13T04:46:54.963Z,99754.97
2023-01-13T04:49:21.462Z,99769.75
2023-01-13T04:51:47.916Z,99767.97
2023-01-13T04:54:14.441Z,99770.44
2023-01-13T04:56:40.885Z,99764.38
2023-01-13T04:59:07.335Z,99763.53
2023-01-13T05:01:33.937Z,99779.16
2023-01-13T05:04:00.432Z,99785.13
2023-01-13T05:06:26.890Z,99782.50
2023-01-13T05:08:53.354Z,99753.00
2023-01-13T05:11:38.194Z,99748.66
2023-01-13T05:14:23.294Z,99736.50
2023-01-13T05:17:02.241Z,99760.06
2023-01-13T05:19:36.887Z,99758.22
2023-01-13T05:22:22.455Z,99759.06
2023-01-13T05:25:07.904Z,99766.81
2023-01-13T05:27:34.843Z,99766.75
2023-01-13T05:30:01.460Z,99761.59
2023-01-13T05:32:28.319Z,99761.59
2023-01-13T05:34:55.866Z,99766.88
2023-01-13T05:37:23.684Z,99757.31
2023-01-13T05:40:09.143Z,99757.47
2023-01-13T05:42:54.295Z,99776.63
2023-01-13T05:45:20.752Z,99777.41
2023-01-13T05:47:47.272Z,99774.81
2023-01-13T05:50:13.804Z,99771.16
2023-01-13T05:52:40.332Z,99771.16
2023-01-13T05:55:07.291Z,99769.41
2023-01-13T05:57:33.702Z,99775.44
2023-01-13T06:00:00.127Z,99771.00
2023-01-13T06:02:26.721Z,99785.06
2023-01-13T06:04:53.167Z,99791.25
2023-01-13T06:07:19.694Z,99793.00
2023-01-13T06:09:46.151Z,99796.38
2023-01-13T06:12:13.843Z,99804.19
2023-01-13T06:14:40.601Z,99794.56
2023-01-13T06:17:12.047Z,99796.34
2023-01-13T06:19:38.813Z,99800.72
2023-01-13T06:22:19.349Z,99808.50
2023-01-13T06:24:46.307Z,99806.66
2023-01-13T06:27:13.062Z,99811.78
2023-01-13T06:29:39.570Z,99810.22
2023-01-13T06:32:11.328Z,99803.28
2023-01-13T06:34:38.759Z,99807.69
2023-01-13T06:37:05.876Z,99796.38
2023-01-13T06:39:32.753Z,99804.16
2023-01-13T06:42:18.313Z,99800.81
2023-01-13T06:44:45.820Z,99799.91
2023-01-13T06:47:12.565Z,99795.69
2023-01-13T06:49:38.982Z,99801.88
2023-01-13T06:52:05.996Z,99807.00
2023-01-13T06:54:32.457Z,99804.44
2023-01-13T06:56:58.897Z,99805.38
2023-01-13T06:59:25.807Z,99804.41
2023-01-13T07:01:52.466Z,99804.47
2023-01-13T07:04:19.410Z,99809.69
2023-01-13T07:06:45.866Z,99806.22
2023-01-13T07:09:12.632Z,99810.59
2023-01-13T07:11:39.093Z,99816.66
2023-01-13T07:14:24.245Z,99815.84
2023-01-13T07:16:52.643Z,99824.63
2023-01-13T07:19:23.618Z,99833.28
2023-01-13T07:21:53.342Z,99824.44
2023-01-13T07:24:20.657Z,99815.72
2023-01-13T07:26:47.072Z,99821.78
2023-01-13T07:29:13.937Z,99832.41
2023-01-13T07:31:40.455Z,99825.28
2023-01-13T07:34:07.351Z,99816.78
2023-01-13T07:36:34.358Z,99835.91
2023-01-13T07:39:01.387Z,99835.06
2023-01-13T07:41:46.509Z,99844.66
2023-01-13T07:44:13.264Z,99836.16
2023-01-13T07:46:40.468Z,99843.13
2023-01-13T07:49:08.257Z,99839.50
2023-01-13T07:51:38.703Z,99851.75
2023-01-13T07:54:05.521Z,99856.94
2023-01-13T07:56:32.524Z,99871.66
2023-01-13T07:59:00.512Z,99859.41
2023-01-13T08:01:31.915Z,99863.69
2023-01-13T08:03:58.971Z,99861.16
2023-01-13T08:06:26.473Z,99863.03
2023-01-13T08:08:53.416Z,99855.25
2023-01-13T08:11:22.149Z,99862.19
2023-01-13T08:13:50.017Z,99872.63
2023-01-13T08:16:16.633Z,99869.13
2023-01-13T08:18:43.462Z,99867.44
2023-01-13T08:21:13.929Z,99871.72
2023-01-13T08:23:42.076Z,99887.34
2023-01-13T08:26:15.098Z,99867.22
2023-01-13T08:28:41.899Z,99881.84
2023-01-13T08:31:11.477Z,99887.94
2023-01-13T08:33:38.339Z,99883.59
2023-01-13T08:36:10.733Z,99895.81
2023-01-13T08:38:37.360Z,99889.66
2023-01-13T08:41:16.159Z,99886.19
2023-01-13T08:43:42.639Z,99891.31
2023-01-13T08:46:09.360Z,99889.63
2023-01-13T08:48:35.934Z,99888.84
2023-01-13T08:51:07.620Z,99893.97
2023-01-13T08:53:34.553Z,99896.34
2023-01-13T08:56:01.367Z,99899.88
2023-01-13T08:58:27.920Z,99899.00
2023-01-13T09:00:54.618Z,99899.97
2023-01-13T09:03:21.154Z,99906.81
2023-01-13T09:05:47.609Z,99907.72
2023-01-13T09:08:14.085Z,99918.06
2023-01-13T09:10:40.662Z,99918.88
2023-01-13T09:13:13.198Z,99914.56
2023-01-13T09:15:41.928Z,99911.13
2023-01-13T09:18:08.953Z,99914.56
2023-01-13T09:20:35.769Z,99904.03
2023-01-13T09:23:02.441Z,99906.59
2023-01-13T09:25:28.911Z,99908.28
2023-01-13T09:27:56.292Z,99917.81
2023-01-13T09:30:23.136Z,99914.38
2023-01-13T09:32:49.846Z,99905.63
2023-01-13T09:35:17.472Z,99913.41
2023-01-13T09:37:44.653Z,99912.53
2023-01-13T09:40:22.465Z,99920.13
2023-01-13T09:43:21.351Z,99914.97
2023-01-13T09:46:01.617Z,99932.19
2023-01-13T09:48:51.867Z,99926.91
2023-01-13T09:51:30.356Z,99933.75
2023-01-13T09:54:06.610Z,99931.25
2023-01-13T09:56:33.233Z,99933.00
2023-01-13T09:58:59.762Z,99948.53
2023-01-13T10:01:35.599Z,99938.97
2023-01-13T10:04:11.571Z,99925.97
2023-01-13T10:06:43.867Z,99929.38
2023-01-13T10:09:34.107Z,99934.69
2023-01-13T10:12:21.322Z,99926.78
2023-01-13T10:14:54.920Z,99947.59
2023-01-13T10:17:34.032Z,99942.38
2023-01-13T10:20:21.283Z,99940.63
2023-01-13T10:22:53.915Z,99927.47
2023-01-13T10:25:58.796Z,99937.97
2023-01-13T10:28:26.464Z,99934.53
2023-01-13T10:30:53.009Z,99944.94
2023-01-13T10:33:28.599Z,99943.06
2023-01-13T10:36:15.023Z,99948.25
2023-01-13T10:38:46.967Z,99944.88
2023-01-13T10:41:16.503Z,99945.75
2023-01-13T10:43:44.517Z,99964.94
2023-01-13T10:46:13.514Z,99953.47
2023-01-13T10:48:42.457Z,99944.66
2023-01-13T10:51:18.420Z,99952.25
2023-01-13T10:54:02.939Z,99963.56
2023-01-13T10:56:34.360Z,99961.63
2023-01-13T10:59:14.515Z,99966.69
2023-01-13T11:02:13.036Z,99967.56
2023-01-13T11:04:53.116Z,99966.47
2023-01-13T11:07:31.485Z,99972.44
2023-01-13T11:10:19.374Z,99970.63
2023-01-13T11:13:02.026Z,99973.25
2023-01-13T11:15:57.716Z,99958.53
2023-01-13T11:19:02.429Z,99973.28
2023-01-13T11:21:36.600Z,99972.53
2023-01-13T11:24:51.186Z,99960.44
2023-01-13T11:27:45.733Z,99956.25
2023-01-13T11:30:24.480Z,99977.97
2023-01-13T11:33:15.173Z,99971.13
2023-01-13T11:35:47.587Z,99980.50
2023-01-13T11:38:47.771Z,99974.63
2023-01-13T11:41:38.874Z,99992.25
2023-01-13T11:44:20.611Z,99987.94
2023-01-13T11:46:52.199Z,99976.69
2023-01-13T11:49:26.828Z,99982.81
2023-01-13T11:52:01.012Z,99993.94
2023-01-13T11:54:49.070Z,99977.72
2023-01-13T11:57:37.307Z,99979.59
2023-01-13T12:00:09.931Z,99980.44
2023-01-13T12:02:58.452Z,99988.22
2023-01-13T12:05:37.166Z,99985.44
2023-01-13T12:08:18.536Z,99976.81
2023-01-13T12:11:03.441Z,99968.09
2023-01-13T12:13:45.567Z,99975.06
2023-01-13T12:16:25.779Z,99973.50
2023-01-13T12:19:18.730Z,99975.13
2023-01-13T12:22:11.525Z,99974.03
2023-01-13T12:24:45.951Z,99974.00
2023-01-13T12:27:31.853Z,99970.69
2023-01-13T12:30:01.898Z,99987.22
2023-01-13T12:32:36.524Z,99991.41
2023-01-13T12:35:05.877Z,99996.03
2023-01-13T12:37:45.341Z,99991.97
2023-01-13T12:40:38.637Z,100013.06
2023-01-13T12:43:36.032Z,100027.06
2023-01-13T12:46:23.468Z,100016.63
2023-01-13T12:48:59.256Z,100027.06
2023-01-13T12:51:37.590Z,100043.72
2023-01-13T12:54:33.684Z,100058.75
2023-01-13T12:57:00.606Z,100048.47
2023-01-13T12:59:27.037Z,100036.41
2023-01-13T13:02:11.949Z,100053.78
2023-01-13T13:04:43.480Z,100063.34
2023-01-13T13:07:17.307Z,100059.84
2023-01-13T13:09:49.570Z,100058.13
2023-01-13T13:12:49.994Z,100065.97
2023-01-13T13:15:34.087Z,100066.03
2023-01-13T13:18:21.899Z,100074.72
2023-01-13T13:21:04.518Z,100073.88
2023-01-13T13:23:37.314Z,100078.25
2023-01-13T13:26:22.121Z,100089.53
2023-01-13T13:29:19.231Z,100083.47
2023-01-13T13:31:54.687Z,100086.09
2023-01-13T13:34:29.193Z,100087.81
2023-01-13T13:37:14.076Z,100082.59
2023-01-13T13:40:01.238Z,100077.41
2023-01-13T13:42:49.202Z,100082.59
2023-01-13T13:45:40.062Z,100087.81
2023-01-13T13:48:21.406Z,100092.16
2023-01-13T13:50:49.759Z,100105.16
2023-01-13T13:53:19.141Z,100108.63
2023-01-13T13:55:57.451Z,100107.72
2023-01-13T13:58:26.269Z,100102.47
2023-01-13T14:00:54.082Z,100104.22
2023-01-13T14:03:31.479Z,100117.19
2023-01-13T14:06:06.963Z,100123.16
2023-01-13T14:08:37.166Z,100121.44
2023-01-13T14:11:27.591Z,100145.69
2023-01-13T14:14:13.691Z,100137.72
2023-01-13T14:16:41.282Z,100137.75
2023-01-13T14:19:33.477Z,100138.63
2023-01-13T14:22:02.221Z,100142.94
2023-01-13T14:24:30.471Z,100137.78
2023-01-13T14:27:17.871Z,100150.00
2023-01-13T14:29:45.204Z,100143.94
2023-01-13T14:32:18.651Z,100150.81
2023-01-13T14:34:45.628Z,100149.16
2023-01-13T14:37:42.703Z,100170.91
2023-01-13T14:40:36.078Z,100169.13
2023-01-13T14:43:04.296Z,100167.38
2023-01-13T14:45:33.077Z,100171.72
2023-01-13T14:48:01.271Z,100192.56
2023-01-13T14:50:33.766Z,100190.00
2023-01-13T14:53:01.673Z,100188.34
2023-01-13T14:55:33.721Z,100207.44
2023-01-13T14:58:21.993Z,100216.16
2023-01-13T15:00:50.412Z,100221.28
2023-01-13T15:03:18.848Z,100218.66
2023-01-13T15:05:54.283Z,100220.41
2023-01-13T15:08:35.183Z,100230.78
2023-01-13T15:11:04.294Z,100232.53
2023-01-13T15:13:35.620Z,100249.00
2023-01-13T15:16:13.480Z,100253.41
2023-01-13T15:18:41.230Z,100249.06
2023-01-13T15:21:09.481Z,100273.38
2023-01-13T15:23:36.561Z,100278.59
2023-01-13T15:26:03.299Z,100265.53
2023-01-13T15:28:31.875Z,100273.41
2023-01-13T15:31:00.633Z,100280.38
2023-01-13T15:33:27.640Z,100284.69
2023-01-13T15:35:54.936Z,100289.03
2023-01-13T15:38:23.338Z,100302.09
2023-01-13T15:40:51.339Z,100303.00
2023-01-13T15:43:41.755Z,100312.56
2023-01-13T15:46:37.205Z,100317.78
2023-01-13T15:49:18.126Z,100325.66
2023-01-13T15:51:44.598Z,100320.47
2023-01-13T15:54:11.958Z,100318.81
2023-01-13T15:56:39.312Z,100323.97
2023-01-13T15:59:15.286Z,100331.75
2023-01-13T16:01:41.818Z,100330.84
2023-01-13T16:04:09.814Z,100337.75
2023-01-13T16:06:37.158Z,100337.78
2023-01-13T16:09:04.316Z,100348.19
2023-01-13T16:11:30.910Z,100340.34
2023-01-13T16:13:57.532Z,100345.56
2023-01-13T16:16:25.789Z,100354.31
2023-01-13T16:18:53.575Z,100347.41
2023-01-13T16:21:21.124Z,100354.31
2023-01-13T16:23:49.527Z,100350.84
2023-01-13T16:26:25.052Z,100345.66
2023-01-13T16:28:52.933Z,100353.47
2023-01-13T16:31:24.615Z,100363.09
2023-01-13T16:33:52.213Z,100363.09
2023-01-13T16:36:20.365Z,100359.56
2023-01-13T16:38:47.867Z,100373.41
2023-01-13T16:41:14.599Z,100379.47
2023-01-13T16:43:41.083Z,100376.91
2023-01-13T16:46:16.544Z,100393.38
2023-01-13T16:48:43.049Z,100386.31
2023-01-13T16:51:09.515Z,100394.13
2023-01-13T16:53:35.963Z,100398.47
2023-01-13T16:56:02.482Z,100412.41
2023-01-13T16:58:28.931Z,100415.91
2023-01-13T17:00:55.451Z,100422.88
2023-01-13T17:03:22.053Z,100423.81
2023-01-13T17:05:48.558Z,100434.22
2023-01-13T17:08:17.909Z,100422.06
2023-01-13T17:10:45.501Z,100423.81
2023-01-13T17:13:16.376Z,100422.84
2023-01-13T17:15:43.937Z,100429.84
2023-01-13T17:18:11.447Z,100435.94
2023-01-13T17:20:37.975Z,100430.75
2023-01-13T17:23:04.408Z,100443.78
2023-01-13T17:25:30.823Z,100442.06
2023-01-13T17:27:58.034Z,100442.88
2023-01-13T17:30:24.776Z,100452.41
2023-01-13T17:32:51.238Z,100454.13
2023-01-13T17:35:22.843Z,100456.78
2023-01-13T17:37:49.312Z,100462.81
2023-01-13T17:40:16.079Z,100460.28
2023-01-13T17:42:42.699Z,100462.94
2023-01-13T17:45:11.431Z,100455.13
2023-01-13T17:47:38.566Z,100463.81
2023-01-13T17:50:05.708Z,100460.34
2023-01-13T17:52:33.620Z,100463.81
2023-01-13T17:55:00.107Z,100466.38
2023-01-13T17:57:26.565Z,100463.78
2023-01-13T17:59:52.971Z,100469.03
2023-01-13T18:02:19.591Z,100477.72
2023-01-13T18:04:46.142Z,100472.47
2023-01-13T18:07:12.576Z,100482.94
2023-01-13T18:09:39.086Z,100492.50
2023-01-13T18:12:06.724Z,100484.69
2023-01-13T18:14:34.227Z,100495.06
2023-01-13T18:17:01.088Z,100493.28
2023-01-13T18:19:46.188Z,100493.25
2023-01-13T18:22:32.531Z,100497.56
2023-01-13T18:25:17.409Z,100492.25
2023-01-13T18:27:43.855Z,100497.41
2023-01-13T18:30:11.954Z,100494.81
2023-01-13T18:32:38.469Z,100494.75
2023-01-13T18:35:10.190Z,100502.63
2023-01-13T18:37:40.032Z,100506.88
2023-01-13T18:40:09.385Z,100500.88
2023-01-13T18:42:52.174Z,100504.34
2023-01-13T18:45:37.815Z,100512.22
2023-01-13T18:48:05.280Z,100512.28
2023-01-13T18:50:32.889Z,100513.94
2023-01-13T18:52:59.416Z,100517.41
2023-01-13T18:55:28.430Z,100523.44
2023-01-13T18:57:56.021Z,100519.19
2023-01-13T19:00:22.971Z,100527.81
2023-01-13T19:05:34.065Z,100537.28
2023-01-13T19:08:00.900Z,100532.91
2023-01-13T19:10:31.730Z,100541.63
2023-01-13T19:12:58.276Z,100534.69
2023-01-13T19:15:24.723Z,100547.75
2023-01-13T19:17:51.191Z,100548.59
2023-01-13T19:20:17.908Z,100554.72
2023-01-13T19:22:46.166Z,100553.00
2023-01-13T19:25:12.684Z,100554.78
2023-01-13T19:27:39.787Z,100554.78
2023-01-13T19:30:06.943Z,100565.16
2023-01-13T19:32:33.622Z,100564.34
2023-01-13T19:35:00.871Z,100560.97
2023-01-13T19:37:31.625Z,100576.53
2023-01-13T19:39:59.093Z,100583.44
2023-01-13T19:42:44.068Z,100582.63
2023-01-13T19:45:27.613Z,100590.50
2023-01-13T19:47:55.640Z,100591.31
2023-01-13T19:50:22.107Z,100595.69
2023-01-13T19:52:48.574Z,100599.22
2023-01-13T19:55:15.020Z,100600.06
2023-01-13T19:57:41.539Z,100605.25
2023-01-13T20:00:10.052Z,100610.50
2023-01-13T20:02:36.990Z,100620.00
2023-01-13T20:05:06.444Z,100625.28
2023-01-13T20:07:33.854Z,100626.13
2023-01-13T20:10:01.512Z,100623.44
2023-01-13T20:12:29.204Z,100624.31
2023-01-13T20:14:56.013Z,100646.13
2023-01-13T20:17:22.828Z,100635.66
2023-01-13T20:19:49.361Z,100633.09
2023-01-13T20:22:15.852Z,100633.97
2023-01-13T20:24:42.648Z,100636.66
2023-01-13T20:27:09.439Z,100639.25
2023-01-13T20:29:36.238Z,100646.22
2023-01-13T20:32:03.271Z,100638.38
2023-01-13T20:34:29.779Z,100641.91
2023-01-13T20:36:56.571Z,100641.94
2023-01-13T20:39:26.262Z,100660.13
2023-01-13T20:42:11.445Z,100651.50
2023-01-13T20:44:37.947Z,100666.22
2023-01-13T20:47:04.703Z,100657.53
2023-01-13T20:49:31.229Z,100666.22
2023-01-13T20:51:57.955Z,100677.53
2023-01-13T20:54:25.071Z,100663.66
2023-01-13T20:56:52.107Z,100671.50
2023-01-13T20:59:19.824Z,100666.28
2023-01-13T21:01:46.506Z,100677.59
2023-01-13T21:04:13.005Z,100682.84
2023-01-13T21:06:39.627Z,100693.28
2023-01-13T21:09:06.072Z,100686.31
2023-01-13T21:11:50.941Z,100679.34
2023-01-13T21:14:40.153Z,100687.19
2023-01-13T21:17:28.275Z,100693.28
2023-01-13T21:19:55.204Z,100681.16
2023-01-13T21:22:21.795Z,100684.66
2023-01-13T21:24:48.383Z,100686.38
2023-01-13T21:27:14.975Z,100694.19
2023-01-13T21:29:41.452Z,100697.63
2023-01-13T21:32:07.931Z,100703.69
2023-01-13T21:34:35.373Z,100706.28
2023-01-13T21:37:01.967Z,100699.38
2023-01-13T21:39:28.557Z,100691.56
2023-01-13T21:42:13.544Z,100705.44
2023-01-13T21:44:59.085Z,100708.94
2023-01-13T21:47:44.276Z,100710.69
2023-01-13T21:50:13.034Z,100712.44
2023-01-13T21:52:42.645Z,100720.19
2023-01-13T21:55:29.269Z,100717.63
2023-01-13T21:58:11.696Z,100726.31
2023-01-13T22:00:41.882Z,100728.06
2023-01-13T22:03:10.061Z,100726.25
2023-01-13T22:05:37.218Z,100728.91
2023-01-13T22:08:04.767Z,100723.75
2023-01-13T22:10:31.828Z,100730.69
2023-01-13T22:13:20.806Z,100746.31
2023-01-13T22:15:47.372Z,100735.03
2023-01-13T22:18:13.787Z,100732.44
2023-01-13T22:20:42.012Z,100735.91
2023-01-13T22:23:08.619Z,100740.28
2023-01-13T22:25:35.166Z,100741.06
2023-01-13T22:28:05.957Z,100743.72
2023-01-13T22:30:33.044Z,100754.13
2023-01-13T22:33:00.242Z,100751.56
2023-01-13T22:35:27.287Z,100755.03
2023-01-13T22:37:53.866Z,100760.22
2023-01-13T22:40:20.409Z,100759.34
2023-01-13T22:42:46.964Z,100761.06
2023-01-13T22:45:14.133Z,100769.72
2023-01-13T22:47:40.773Z,100781.91
2023-01-13T22:50:08.173Z,100784.50
2023-01-13T22:52:35.685Z,100781.03
2023-01-13T22:55:02.163Z,100794.91
2023-01-13T22:57:36.375Z,100786.25
2023-01-13T23:00:10.114Z,100797.53
2023-01-13T23:02:38.003Z,100791.47
2023-01-13T23:05:04.633Z,100790.63
2023-01-13T23:07:31.073Z,100796.69
2023-01-13T23:09:57.523Z,100804.50
2023-01-13T23:12:23.983Z,100793.22
2023-01-13T23:14:50.437Z,100800.16
2023-01-13T23:17:16.911Z,100801.84
2023-01-13T23:19:43.372Z,100794.91
2023-01-13T23:22:09.819Z,100799.28
2023-01-13T23:24:36.300Z,100801.84
2023-01-13T23:27:02.854Z,100814.00
2023-01-13T23:29:29.305Z,100802.75
2023-01-13T23:31:55.736Z,100819.25
2023-01-13T23:34:22.213Z,100827.09
2023-01-13T23:36:48.666Z,100833.16
2023-01-13T23:39:15.142Z,100830.56
2023-01-13T23:41:41.745Z,100843.56
2023-01-13T23:44:09.285Z,100841.00
2023-01-13T23:46:35.796Z,100829.69
2023-01-13T23:49:03.580Z,100837.47
2023-01-13T23:51:30.497Z,100821.88
2023-01-13T23:53:58.545Z,100829.69
2023-01-13T23:56:30.656Z,100815.81
2023-01-13T23:58:57.905Z,100819.25
